createdAt,value
2023-03-02T00:01:04.592Z,96546.31
2023-03-02T00:03:33.595Z,96546.44
2023-03-02T00:06:00.706Z,96545.38
2023-03-02T00:08:28.974Z,96541.66
2023-03-02T00:10:57.937Z,96543.94
2023-03-02T00:13:24.813Z,96544.19
2023-03-02T00:15:51.522Z,96543.34
2023-03-02T00:18:18.250Z,96540.97
2023-03-02T00:20:44.877Z,96541.06
2023-03-02T00:23:11.645Z,96543.72
2023-03-02T00:25:38.240Z,96537.81
2023-03-02T00:28:04.987Z,96545.03
2023-03-02T00:30:31.678Z,96540.00
2023-03-02T00:33:01.112Z,96543.22
2023-03-02T00:35:27.776Z,96535.94
2023-03-02T00:37:54.516Z,96543.22
2023-03-02T00:43:00.125Z,96540.59
2023-03-02T00:45:26.807Z,96533.03
2023-03-02T00:47:53.481Z,96536.84
2023-03-02T00:50:20.194Z,96531.59
2023-03-02T00:52:46.780Z,96531.22
2023-03-02T00:55:13.372Z,96531.50
2023-03-02T00:57:39.970Z,96532.56
2023-03-02T01:03:57.370Z,96534.84
2023-03-02T01:06:24.006Z,96525.25
2023-03-02T01:08:50.653Z,96530.41
2023-03-02T01:11:20.506Z,96533.53
2023-03-02T01:13:48.461Z,96532.81
2023-03-02T01:16:15.591Z,96521.56
2023-03-02T01:18:42.978Z,96522.50
2023-03-02T01:21:13.528Z,96518.06
2023-03-02T01:23:40.199Z,96523.56
2023-03-02T01:26:07.362Z,96522.75
2023-03-02T01:28:34.070Z,96516.75
2023-03-02T01:31:02.740Z,96510.66
2023-03-02T01:33:30.636Z,96508.03
2023-03-02T01:35:57.304Z,96508.84
2023-03-02T01:38:24.001Z,96504.53
2023-03-02T01:40:50.940Z,96502.00
2023-03-02T01:43:17.871Z,96500.94
2023-03-02T01:45:47.579Z,96500.31
2023-03-02T01:48:16.809Z,96505.34
2023-03-02T01:50:43.541Z,96508.59
2023-03-02T01:53:10.197Z,96505.97
2023-03-02T01:55:39.062Z,96507.63
2023-03-02T01:58:06.748Z,96510.03
2023-03-02T02:00:37.083Z,96506.56
2023-03-02T02:03:10.883Z,96508.47
2023-03-02T02:05:41.446Z,96509.53
2023-03-02T02:08:09.884Z,96508.81
2023-03-02T02:10:37.146Z,96507.63
2023-03-02T02:13:04.096Z,96508.22
2023-03-02T02:15:30.824Z,96517.22
2023-03-02T02:17:57.476Z,96509.53
2023-03-02T02:20:36.158Z,96513.34
2023-03-02T02:23:23.693Z,96514.59
2023-03-02T02:25:53.149Z,96509.22
2023-03-02T02:28:25.265Z,96512.91
2023-03-02T02:31:06.971Z,96507.97
2023-03-02T02:33:36.732Z,96511.19
2023-03-02T02:36:08.580Z,96510.00
2023-03-02T02:38:37.557Z,96512.63
2023-03-02T02:41:07.592Z,96509.88
2023-03-02T02:43:34.508Z,96510.59
2023-03-02T02:46:02.866Z,96510.47
2023-03-02T02:48:32.367Z,96513.03
2023-03-02T02:51:03.379Z,96507.84
2023-03-02T02:53:50.468Z,96505.13
2023-03-02T02:56:18.723Z,96513.84
2023-03-02T02:58:53.966Z,96507.63
2023-03-02T03:01:26.682Z,96511.72
2023-03-02T03:05:05.532Z,96512.91
2023-03-02T03:07:32.995Z,96506.91
2023-03-02T03:10:08.328Z,96504.28
2023-03-02T03:12:35.400Z,96510.38
2023-03-02T03:15:03.267Z,96504.06
2023-03-02T03:17:30.086Z,96500.13
2023-03-02T03:20:06.137Z,96504.53
2023-03-02T03:22:35.976Z,96498.78
2023-03-02T03:25:02.941Z,96500.31
2023-03-02T03:27:29.696Z,96504.94
2023-03-02T03:29:56.519Z,96504.94
2023-03-02T03:32:23.582Z,96501.38
2023-03-02T03:34:50.382Z,96502.94
2023-03-02T03:37:19.965Z,96501.75
2023-03-02T03:39:46.792Z,96493.75
2023-03-02T03:42:13.586Z,96506.69
2023-03-02T03:44:40.245Z,96496.38
2023-03-02T03:47:06.918Z,96502.59
2023-03-02T03:49:33.631Z,96497.31
2023-03-02T03:52:00.299Z,96503.44
2023-03-02T03:54:26.952Z,96500.81
2023-03-02T03:56:53.605Z,96501.63
2023-03-02T03:59:25.416Z,96504.88
2023-03-02T04:04:35.046Z,96505.72
2023-03-02T04:07:01.907Z,96501.75
2023-03-02T04:09:29.292Z,96502.59
2023-03-02T04:11:56.437Z,96499.25
2023-03-02T04:14:24.517Z,96490.59
2023-03-02T04:16:52.599Z,96492.66
2023-03-02T04:19:19.350Z,96486.19
2023-03-02T04:23:07.534Z,96490.41
2023-03-02T04:25:34.173Z,96485.00
2023-03-02T04:28:00.951Z,96480.56
2023-03-02T04:30:27.694Z,96478.06
2023-03-02T04:32:54.727Z,96480.81
2023-03-02T04:35:21.499Z,96479.88
2023-03-02T04:37:48.235Z,96480.69
2023-03-02T04:40:16.226Z,96480.09
2023-03-02T04:42:44.743Z,96474.00
2023-03-02T04:45:13.389Z,96477.44
2023-03-02T04:48:32.065Z,96475.56
2023-03-02T04:50:58.758Z,96468.59
2023-03-02T04:56:04.107Z,96476.50
2023-03-02T04:58:31.232Z,96478.91
2023-03-02T05:01:02.282Z,96476.25
2023-03-02T05:03:29.033Z,96477.94
2023-03-02T05:05:57.246Z,96471.63
2023-03-02T05:08:24.508Z,96473.19
2023-03-02T05:10:51.198Z,96467.22
2023-03-02T05:13:17.829Z,96465.41
2023-03-02T05:15:44.570Z,96468.16
2023-03-02T05:18:11.551Z,96471.50
2023-03-02T05:20:39.386Z,96468.28
2023-03-02T05:23:08.890Z,96474.38
2023-03-02T05:25:37.564Z,96469.09
2023-03-02T05:28:05.377Z,96464.09
2023-03-02T05:30:37.441Z,96474.59
2023-03-02T05:33:04.365Z,96465.72
2023-03-02T05:35:31.076Z,96463.00
2023-03-02T05:37:57.879Z,96460.00
2023-03-02T05:40:24.634Z,96462.53
2023-03-02T05:42:51.653Z,96457.50
2023-03-02T05:45:23.419Z,96460.00
2023-03-02T05:47:50.433Z,96458.34
2023-03-02T05:50:17.639Z,96460.00
2023-03-02T05:52:45.563Z,96470.53
2023-03-02T05:55:16.766Z,96468.75
2023-03-02T05:57:44.243Z,96473.06
2023-03-02T06:00:14.256Z,96470.44
2023-03-02T06:02:41.754Z,96479.06
2023-03-02T06:05:11.810Z,96472.94
2023-03-02T06:07:39.180Z,96472.13
2023-03-02T06:10:07.448Z,96473.69
2023-03-02T06:12:34.352Z,96478.00
2023-03-02T06:15:00.951Z,96483.25
2023-03-02T06:17:27.612Z,96477.00
2023-03-02T06:19:54.247Z,96479.66
2023-03-02T06:22:21.033Z,96486.72
2023-03-02T06:24:47.657Z,96478.69
2023-03-02T06:27:14.694Z,96481.34
2023-03-02T06:29:41.340Z,96482.78
2023-03-02T06:32:08.440Z,96476.56
2023-03-02T06:34:35.533Z,96472.13
2023-03-02T06:37:02.377Z,96470.09
2023-03-02T06:39:30.196Z,96478.63
2023-03-02T06:41:56.858Z,96468.78
2023-03-02T06:44:23.530Z,96481.94
2023-03-02T06:46:50.156Z,96476.34
2023-03-02T06:49:16.773Z,96481.13
2023-03-02T06:51:43.385Z,96479.09
2023-03-02T06:54:10.147Z,96472.16
2023-03-02T06:56:36.929Z,96482.44
2023-03-02T06:59:03.638Z,96479.72
2023-03-02T07:01:35.743Z,96484.88
2023-03-02T07:04:03.105Z,96478.16
2023-03-02T07:06:29.780Z,96470.63
2023-03-02T07:08:56.447Z,96477.19
2023-03-02T07:11:23.042Z,96482.47
2023-03-02T07:13:49.876Z,96480.78
2023-03-02T07:16:16.622Z,96477.94
2023-03-02T07:18:43.334Z,96472.41
2023-03-02T07:21:09.994Z,96480.31
2023-03-02T07:23:36.674Z,96480.19
2023-03-02T07:26:08.454Z,96477.56
2023-03-02T07:28:37.219Z,96475.66
2023-03-02T07:31:04.093Z,96482.81
2023-03-02T07:33:30.904Z,96475.25
2023-03-02T07:35:57.945Z,96475.38
2023-03-02T07:38:24.654Z,96478.03
2023-03-02T07:40:51.778Z,96471.66
2023-03-02T07:43:18.548Z,96470.34
2023-03-02T07:45:45.318Z,96471.53
2023-03-02T07:48:12.106Z,96474.63
2023-03-02T07:50:38.803Z,96469.00
2023-03-02T07:53:05.486Z,96474.16
2023-03-02T07:55:32.178Z,96462.38
2023-03-02T07:57:58.868Z,96470.31
2023-03-02T08:00:25.825Z,96464.91
2023-03-02T08:02:52.521Z,96468.13
2023-03-02T08:05:19.329Z,96467.06
2023-03-02T08:07:47.056Z,96467.41
2023-03-02T08:10:13.796Z,96466.66
2023-03-02T08:12:42.905Z,96460.53
2023-03-02T08:15:10.689Z,96464.44
2023-03-02T08:17:37.419Z,96461.31
2023-03-02T08:20:04.744Z,96462.47
2023-03-02T08:22:31.404Z,96461.16
2023-03-02T08:24:58.091Z,96452.41
2023-03-02T08:27:24.839Z,96457.19
2023-03-02T08:29:51.489Z,96449.00
2023-03-02T08:32:18.129Z,96455.56
2023-03-02T08:34:44.836Z,96448.09
2023-03-02T08:37:11.514Z,96457.56
2023-03-02T08:39:38.254Z,96463.78
2023-03-02T08:42:04.904Z,96463.03
2023-03-02T08:44:31.540Z,96452.09
2023-03-02T08:46:58.167Z,96459.41
2023-03-02T08:49:24.808Z,96448.66
2023-03-02T08:51:53.759Z,96452.31
2023-03-02T08:54:21.405Z,96448.19
2023-03-02T08:56:48.977Z,96455.72
2023-03-02T08:59:16.042Z,96445.44
2023-03-02T09:01:42.910Z,96444.06
2023-03-02T09:04:11.383Z,96435.75
2023-03-02T09:06:41.161Z,96445.78
2023-03-02T09:09:09.218Z,96448.22
2023-03-02T09:11:36.413Z,96439.72
2023-03-02T09:14:03.511Z,96438.31
2023-03-02T09:16:30.270Z,96430.38
2023-03-02T09:18:57.151Z,96427.50
2023-03-02T09:21:24.610Z,96427.22
2023-03-02T09:23:55.746Z,96433.06
2023-03-02T09:26:22.739Z,96435.59
2023-03-02T09:28:49.568Z,96435.03
2023-03-02T09:31:16.302Z,96426.13
2023-03-02T09:33:43.028Z,96433.97
2023-03-02T09:36:14.036Z,96429.34
2023-03-02T09:38:40.722Z,96425.34
2023-03-02T09:41:19.957Z,96423.66
2023-03-02T09:43:52.586Z,96435.66
2023-03-02T09:46:30.837Z,96428.28
2023-03-02T09:49:06.457Z,96423.22
2023-03-02T09:51:39.816Z,96423.22
2023-03-02T09:54:11.857Z,96428.38
2023-03-02T09:56:45.757Z,96431.75
2023-03-02T09:59:39.567Z,96425.34
2023-03-02T10:02:24.510Z,96423.53
2023-03-02T10:04:54.626Z,96427.41
2023-03-02T10:07:30.352Z,96423.38
2023-03-02T10:10:04.581Z,96427.81
2023-03-02T10:12:53.387Z,96424.91
2023-03-02T10:15:46.543Z,96426.44
2023-03-02T10:18:23.591Z,96433.25
2023-03-02T10:20:56.545Z,96426.31
2023-03-02T10:23:38.365Z,96424.75
2023-03-02T10:26:31.752Z,96430.06
2023-03-02T10:29:16.821Z,96427.41
2023-03-02T10:31:43.577Z,96430.63
2023-03-02T10:34:14.097Z,96433.53
2023-03-02T10:36:44.070Z,96432.56
2023-03-02T10:39:14.795Z,96433.63
2023-03-02T10:41:58.369Z,96430.88
2023-03-02T10:44:27.857Z,96428.81
2023-03-02T10:46:54.891Z,96431.03
2023-03-02T10:49:27.771Z,96428.53
2023-03-02T10:52:06.324Z,96428.69
2023-03-02T10:54:34.775Z,96418.63
2023-03-02T10:57:26.203Z,96422.66
2023-03-02T10:59:52.971Z,96425.06
2023-03-02T11:02:25.423Z,96422.66
2023-03-02T11:05:10.960Z,96417.50
2023-03-02T11:07:37.580Z,96417.81
2023-03-02T11:10:19.928Z,96423.66
2023-03-02T11:12:48.669Z,96416.44
2023-03-02T11:15:18.368Z,96416.69
2023-03-02T11:17:48.290Z,96414.47
2023-03-02T11:20:24.372Z,96412.25
2023-03-02T11:23:16.758Z,96414.19
2023-03-02T11:26:08.101Z,96411.38
2023-03-02T11:28:41.939Z,96416.25
2023-03-02T11:31:16.787Z,96417.50
2023-03-02T11:33:51.675Z,96419.19
2023-03-02T11:36:23.455Z,96423.91
2023-03-02T11:38:55.982Z,96411.25
2023-03-02T11:41:30.589Z,96409.19
2023-03-02T11:44:00.884Z,96407.22
2023-03-02T11:46:33.231Z,96400.53
2023-03-02T11:49:05.465Z,96402.88
2023-03-02T11:51:44.672Z,96403.19
2023-03-02T11:54:32.890Z,96401.25
2023-03-02T11:57:00.553Z,96404.44
2023-03-02T11:59:28.962Z,96397.06
2023-03-02T12:01:59.699Z,96395.22
2023-03-02T12:04:32.456Z,96391.47
2023-03-02T12:07:02.305Z,96390.66
2023-03-02T12:09:37.102Z,96383.81
2023-03-02T12:12:22.399Z,96386.19
2023-03-02T12:14:49.117Z,96382.97
2023-03-02T12:17:19.346Z,96375.31
2023-03-02T12:19:47.072Z,96369.88
2023-03-02T12:22:15.338Z,96367.50
2023-03-02T12:24:44.998Z,96360.22
2023-03-02T12:27:20.915Z,96363.28
2023-03-02T12:29:57.632Z,96357.59
2023-03-02T12:32:26.469Z,96361.34
2023-03-02T12:35:08.100Z,96360.63
2023-03-02T12:38:12.960Z,96354.91
2023-03-02T12:41:15.127Z,96356.69
2023-03-02T12:43:55.889Z,96347.78
2023-03-02T12:46:32.994Z,96348.91
2023-03-02T12:49:06.525Z,96344.16
2023-03-02T12:52:04.276Z,96344.31
2023-03-02T12:54:33.879Z,96338.72
2023-03-02T12:57:18.386Z,96340.78
2023-03-02T12:59:53.542Z,96334.78
2023-03-02T13:02:23.136Z,96333.78
2023-03-02T13:04:54.346Z,96333.09
2023-03-02T13:07:26.509Z,96340.91
2023-03-02T13:09:57.062Z,96336.16
2023-03-02T13:12:27.114Z,96329.63
2023-03-02T13:14:56.825Z,96333.34
2023-03-02T13:17:33.129Z,96332.09
2023-03-02T13:20:02.172Z,96330.09
2023-03-02T13:22:29.579Z,96320.41
2023-03-02T13:25:03.532Z,96318.81
2023-03-02T13:27:31.327Z,96312.44
2023-03-02T13:30:10.054Z,96318.69
2023-03-02T13:32:41.040Z,96308.81
2023-03-02T13:35:29.579Z,96310.59
2023-03-02T13:38:03.818Z,96301.78
2023-03-02T13:40:34.358Z,96301.84
2023-03-02T13:43:00.985Z,96303.91
2023-03-02T13:45:30.172Z,96299.88
2023-03-02T13:47:59.292Z,96296.13
2023-03-02T13:50:31.665Z,96295.16
2023-03-02T13:53:07.279Z,96295.06
2023-03-02T13:55:35.048Z,96298.13
2023-03-02T13:58:02.525Z,96291.97
2023-03-02T14:00:33.513Z,96286.72
2023-03-02T14:03:00.562Z,96289.31
2023-03-02T14:05:33.297Z,96281.19
2023-03-02T14:08:00.993Z,96283.75
2023-03-02T14:10:27.637Z,96281.75
2023-03-02T14:13:08.648Z,96279.25
2023-03-02T14:15:41.779Z,96277.50
2023-03-02T14:18:32.862Z,96271.75
2023-03-02T14:20:59.543Z,96268.25
2023-03-02T14:23:27.309Z,96269.34
2023-03-02T14:25:56.518Z,96273.06
2023-03-02T14:28:28.715Z,96264.66
2023-03-02T14:30:56.994Z,96267.53
2023-03-02T14:33:24.564Z,96260.94
2023-03-02T14:35:54.269Z,96266.81
2023-03-02T14:38:23.247Z,96259.81
2023-03-02T14:40:50.120Z,96262.69
2023-03-02T14:43:18.675Z,96267.19
2023-03-02T14:45:45.701Z,96261.19
2023-03-02T14:48:12.383Z,96253.38
2023-03-02T14:50:42.828Z,96254.81
2023-03-02T14:53:15.775Z,96258.28
2023-03-02T14:55:43.011Z,96255.09
2023-03-02T14:58:17.734Z,96253.06
2023-03-02T15:00:45.281Z,96252.66
2023-03-02T15:03:19.419Z,96250.25
2023-03-02T15:05:58.971Z,96249.78
2023-03-02T15:08:27.420Z,96242.38
2023-03-02T15:10:54.079Z,96242.63
2023-03-02T15:13:20.743Z,96238.13
2023-03-02T15:15:47.422Z,96247.53
2023-03-02T15:18:17.049Z,96244.25
2023-03-02T15:20:43.659Z,96247.94
2023-03-02T15:23:10.331Z,96244.13
2023-03-02T15:25:36.985Z,96251.59
2023-03-02T15:28:04.377Z,96250.22
2023-03-02T15:30:31.078Z,96247.34
2023-03-02T15:32:59.532Z,96245.50
2023-03-02T15:35:27.960Z,96245.50
2023-03-02T15:37:58.196Z,96241.78
2023-03-02T15:40:25.696Z,96244.72
2023-03-02T15:42:53.183Z,96248.94
2023-03-02T15:45:20.105Z,96238.50
2023-03-02T15:47:46.856Z,96243.94
2023-03-02T15:50:13.549Z,96244.91
2023-03-02T15:52:40.808Z,96236.50
2023-03-02T15:55:07.932Z,96250.75
2023-03-02T15:57:39.358Z,96242.38
2023-03-02T16:00:07.250Z,96247.97
2023-03-02T16:02:34.465Z,96243.50
2023-03-02T16:05:01.159Z,96245.09
2023-03-02T16:07:27.978Z,96241.06
2023-03-02T16:09:54.583Z,96243.00
2023-03-02T16:12:23.479Z,96240.06
2023-03-02T16:14:50.237Z,96232.97
2023-03-02T16:17:20.001Z,96241.06
2023-03-02T16:19:46.712Z,96239.94
2023-03-02T16:22:13.383Z,96237.59
2023-03-02T16:24:41.788Z,96239.69
2023-03-02T16:27:09.125Z,96237.75
2023-03-02T16:29:35.857Z,96241.22
2023-03-02T16:32:02.569Z,96239.41
2023-03-02T16:34:29.352Z,96239.00
2023-03-02T16:36:56.006Z,96239.88
2023-03-02T16:39:23.166Z,96250.06
2023-03-02T16:41:51.323Z,96247.16
2023-03-02T16:44:18.086Z,96245.34
2023-03-02T16:46:44.835Z,96254.41
2023-03-02T16:49:13.084Z,96247.59
2023-03-02T16:51:40.597Z,96256.50
2023-03-02T16:54:07.573Z,96262.91
2023-03-02T16:56:34.300Z,96261.22
2023-03-02T16:59:01.023Z,96263.06
2023-03-02T17:01:28.479Z,96269.59
2023-03-02T17:03:56.250Z,96267.41
2023-03-02T17:06:24.233Z,96270.31
2023-03-02T17:08:51.375Z,96271.56
2023-03-02T17:11:18.616Z,96272.69
2023-03-02T17:13:45.257Z,96283.25
2023-03-02T17:16:12.552Z,96274.06
2023-03-02T17:18:41.073Z,96284.66
2023-03-02T17:21:08.179Z,96296.22
2023-03-02T17:23:35.051Z,96296.34
2023-03-02T17:26:02.168Z,96290.53
2023-03-02T17:28:28.869Z,96291.63
2023-03-02T17:30:55.694Z,96299.69
2023-03-02T17:33:22.388Z,96293.56
2023-03-02T17:35:49.752Z,96292.03
2023-03-02T17:38:16.449Z,96293.84
2023-03-02T17:40:43.558Z,96292.91
2023-03-02T17:43:11.540Z,96299.44
2023-03-02T17:45:38.388Z,96294.25
2023-03-02T17:48:05.453Z,96295.50
2023-03-02T17:50:32.517Z,96296.63
2023-03-02T17:52:59.931Z,96296.91
2023-03-02T17:55:27.006Z,96297.47
2023-03-02T17:57:53.775Z,96307.19
2023-03-02T18:00:22.325Z,96305.50
2023-03-02T18:02:49.710Z,96306.50
2023-03-02T18:05:16.393Z,96304.41
2023-03-02T18:07:43.083Z,96306.38
2023-03-02T18:10:10.464Z,96302.19
2023-03-02T18:12:37.137Z,96304.97
2023-03-02T18:15:04.451Z,96303.44
2023-03-02T18:17:31.082Z,96307.19
2023-03-02T18:19:57.875Z,96307.44
2023-03-02T18:22:24.592Z,96314.66
2023-03-02T18:24:52.052Z,96307.72
2023-03-02T18:27:19.218Z,96308.00
2023-03-02T18:29:45.895Z,96312.31
2023-03-02T18:32:12.719Z,96296.56
2023-03-02T18:34:39.783Z,96304.50
2023-03-02T18:37:06.820Z,96308.94
2023-03-02T18:39:33.689Z,96306.88
2023-03-02T18:42:00.546Z,96309.50
2023-03-02T18:44:28.404Z,96303.38
2023-03-02T18:46:56.101Z,96304.47
2023-03-02T18:49:23.937Z,96305.44
2023-03-02T18:51:50.658Z,96304.75
2023-03-02T18:54:17.368Z,96302.94
2023-03-02T18:56:44.082Z,96303.78
2023-03-02T18:59:11.210Z,96307.41
2023-03-02T19:01:38.271Z,96307.25
2023-03-02T19:04:05.958Z,96308.50
2023-03-02T19:06:33.254Z,96306.00
2023-03-02T19:08:59.962Z,96310.19
2023-03-02T19:11:26.849Z,96304.31
2023-03-02T19:13:53.504Z,96295.69
2023-03-02T19:16:20.265Z,96297.34
2023-03-02T19:18:47.061Z,96301.81
2023-03-02T19:21:13.761Z,96300.00
2023-03-02T19:23:41.162Z,96299.31
2023-03-02T19:26:08.265Z,96301.22
2023-03-02T19:28:36.247Z,96297.91
2023-03-02T19:31:08.919Z,96301.22
2023-03-02T19:33:35.670Z,96304.97
2023-03-02T19:36:02.716Z,96305.66
2023-03-02T19:38:29.386Z,96305.50
2023-03-02T19:41:00.614Z,96314.25
2023-03-02T19:43:27.957Z,96314.25
2023-03-02T19:45:54.977Z,96314.25
2023-03-02T19:48:21.913Z,96315.94
2023-03-02T19:50:48.941Z,96311.47
2023-03-02T19:53:17.192Z,96318.44
2023-03-02T19:55:44.792Z,96321.06
2023-03-02T19:58:17.226Z,96322.03
2023-03-02T20:00:44.877Z,96321.34
2023-03-02T20:03:12.345Z,96315.22
2023-03-02T20:05:39.519Z,96317.72
2023-03-02T20:08:07.202Z,96312.69
2023-03-02T20:10:37.474Z,96314.53
2023-03-02T20:13:04.895Z,96316.16
2023-03-02T20:15:33.298Z,96318.94
2023-03-02T20:18:02.644Z,96318.81
2023-03-02T20:20:31.101Z,96320.75
2023-03-02T20:22:58.823Z,96317.41
2023-03-02T20:25:25.917Z,96319.22
2023-03-02T20:27:53.234Z,96323.53
2023-03-02T20:30:29.081Z,96325.47
2023-03-02T20:32:57.851Z,96327.56
2023-03-02T20:35:25.281Z,96324.31
2023-03-02T20:37:55.603Z,96321.25
2023-03-02T20:40:23.587Z,96322.09
2023-03-02T20:42:50.346Z,96323.88
2023-03-02T20:45:17.144Z,96319.31
2023-03-02T20:47:44.452Z,96309.44
2023-03-02T20:50:17.680Z,96323.59
2023-03-02T20:52:44.433Z,96320.28
2023-03-02T20:55:11.897Z,96314.41
2023-03-02T20:57:39.219Z,96311.91
2023-03-02T21:00:14.061Z,96309.13
2023-03-02T21:02:40.866Z,96311.09
2023-03-02T21:05:07.804Z,96306.91
2023-03-02T21:07:35.858Z,96305.94
2023-03-02T21:10:05.516Z,96299.44
2023-03-02T21:12:33.330Z,96290.78
2023-03-02T21:15:02.176Z,96303.31
2023-03-02T21:17:30.776Z,96292.75
2023-03-02T21:19:58.305Z,96287.19
2023-03-02T21:22:25.600Z,96291.88
2023-03-02T21:24:55.276Z,96285.91
2023-03-02T21:27:21.939Z,96289.22
2023-03-02T21:29:49.198Z,96284.44
2023-03-02T21:32:15.952Z,96284.19
2023-03-02T21:34:42.915Z,96276.97
2023-03-02T21:37:09.569Z,96276.84
2023-03-02T21:39:36.459Z,96269.06
2023-03-02T21:42:03.824Z,96272.53
2023-03-02T21:44:30.533Z,96274.19
2023-03-02T21:46:57.219Z,96266.41
2023-03-02T21:49:23.883Z,96263.47
2023-03-02T21:51:50.808Z,96265.41
2023-03-02T21:54:17.653Z,96273.47
2023-03-02T21:56:44.526Z,96269.28
2023-03-02T21:59:12.059Z,96265.91
2023-03-02T22:01:38.825Z,96266.88
2023-03-02T22:04:05.703Z,96265.78
2023-03-02T22:06:34.153Z,96262.47
2023-03-02T22:11:14.789Z,96266.19
2023-03-02T22:13:42.600Z,96274.09
2023-03-02T22:16:21.792Z,96261.06
2023-03-02T22:18:54.806Z,96260.78
2023-03-02T22:21:27.708Z,96258.41
2023-03-02T22:24:00.459Z,96264.19
2023-03-02T22:26:27.129Z,96264.59
2023-03-02T22:28:58.318Z,96258.59
2023-03-02T22:31:25.025Z,96255.81
2023-03-02T22:33:51.789Z,96264.47
2023-03-02T22:36:24.263Z,96253.78
2023-03-02T22:38:51.428Z,96262.50
2023-03-02T22:41:20.083Z,96258.22
2023-03-02T22:43:47.038Z,96245.88
2023-03-02T22:46:20.704Z,96251.00
2023-03-02T22:48:52.096Z,96250.31
2023-03-02T22:51:29.685Z,96247.91
2023-03-02T22:53:59.277Z,96241.69
2023-03-02T22:56:35.054Z,96238.91
2023-03-02T22:59:24.759Z,96243.63
2023-03-02T23:01:53.718Z,96232.75
2023-03-02T23:04:25.537Z,96236.50
2023-03-02T23:06:54.202Z,96238.53
2023-03-02T23:09:27.071Z,96237.72
2023-03-02T23:12:22.034Z,96232.69
2023-03-02T23:14:53.372Z,96233.66
2023-03-02T23:17:39.111Z,96234.88
2023-03-02T23:20:10.714Z,96233.97
2023-03-02T23:22:39.174Z,96237.06
2023-03-02T23:25:07.927Z,96232.03
2023-03-02T23:27:35.248Z,96232.88
2023-03-02T23:30:02.926Z,96230.00
2023-03-02T23:32:29.582Z,96235.28
2023-03-02T23:34:56.602Z,96230.97
2023-03-02T23:37:23.238Z,96229.28
2023-03-02T23:39:49.913Z,96228.31
2023-03-02T23:42:16.584Z,96222.31
2023-03-02T23:44:43.226Z,96226.19
2023-03-02T23:47:09.900Z,96231.25
2023-03-02T23:49:36.522Z,96228.56
2023-03-02T23:52:03.681Z,96220.66
2023-03-02T23:54:30.286Z,96230.09
2023-03-02T23:56:56.905Z,96227.34
2023-03-02T23:59:23.575Z,96223.75
